createdAt,value
2019-04-11T00:00:45.938Z,6.00
2019-04-11T00:03:15.516Z,6.00
2019-04-11T00:05:45.327Z,5.90
2019-04-11T00:08:14.585Z,5.80
2019-04-11T00:10:44.970Z,5.80
2019-04-11T00:13:21.645Z,5.80
2019-04-11T00:15:45.549Z,5.80
2019-04-11T00:18:14.820Z,5.70
2019-04-11T00:20:44.388Z,5.70
2019-04-11T00:23:14.180Z,5.60
2019-04-11T00:25:44.094Z,5.60
2019-04-11T00:28:13.712Z,5.60
2019-04-11T00:30:44.034Z,5.60
2019-04-11T00:33:13.979Z,5.50
2019-04-11T00:35:43.937Z,5.50
2019-04-11T00:38:13.867Z,5.50
2019-04-11T00:40:43.726Z,5.50
2019-04-11T00:43:13.087Z,5.50
2019-04-11T00:45:43.490Z,5.50
2019-04-11T00:48:13.315Z,5.40
2019-04-11T00:50:43.328Z,5.40
2019-04-11T00:53:16.019Z,5.40
2019-04-11T00:55:46.015Z,5.30
2019-04-11T00:58:17.177Z,5.30
2019-04-11T01:00:47.161Z,5.20
2019-04-11T01:03:16.429Z,5.20
2019-04-11T01:05:45.803Z,5.20
2019-04-11T01:08:15.704Z,5.20
2019-04-11T01:10:45.713Z,5.20
2019-04-11T01:13:15.745Z,5.20
2019-04-11T01:15:52.526Z,5.10
2019-04-11T01:18:22.312Z,5.10
2019-04-11T01:20:51.574Z,5.00
2019-04-11T01:23:20.812Z,5.00
2019-04-11T01:25:50.056Z,4.90
2019-04-11T01:28:19.205Z,4.90
2019-04-11T01:30:57.611Z,4.90
2019-04-11T01:33:27.492Z,4.90
2019-04-11T01:35:57.465Z,4.90
2019-04-11T01:38:28.254Z,4.90
2019-04-11T01:40:58.261Z,4.80
2019-04-11T01:43:28.141Z,4.80
2019-04-11T01:45:58.709Z,4.80
2019-04-11T01:48:38.288Z,4.80
2019-04-11T01:51:07.585Z,4.80
2019-04-11T01:53:37.330Z,4.80
2019-04-11T01:56:07.267Z,4.80
2019-04-11T01:58:36.841Z,4.70
2019-04-11T02:01:12.678Z,4.70
2019-04-11T02:03:52.746Z,4.70
2019-04-11T02:06:22.229Z,4.70
2019-04-11T02:08:52.030Z,4.60
2019-04-11T02:11:21.322Z,4.60
2019-04-11T02:13:50.597Z,4.60
2019-04-11T02:16:20.999Z,4.60
2019-04-11T02:18:50.302Z,4.60
2019-04-11T02:21:19.950Z,4.60
2019-04-11T02:24:09.818Z,4.50
2019-04-11T02:26:39.477Z,4.50
2019-04-11T02:29:08.952Z,4.50
2019-04-11T02:31:39.018Z,4.40
2019-04-11T02:34:08.871Z,4.40
2019-04-11T02:36:38.498Z,4.40
2019-04-11T02:39:16.714Z,4.30
2019-04-11T02:41:42.173Z,4.30
2019-04-11T02:44:27.088Z,4.30
2019-04-11T02:46:50.730Z,4.30
2019-04-11T02:49:14.908Z,4.20
2019-04-11T02:51:45.040Z,4.20
2019-04-11T02:54:15.917Z,4.20
2019-04-11T02:56:48.804Z,4.20
2019-04-11T02:59:17.674Z,4.20
2019-04-11T03:01:48.434Z,4.20
2019-04-11T03:04:20.037Z,4.20
2019-04-11T03:06:49.782Z,4.10
2019-04-11T03:09:19.754Z,4.10
2019-04-11T03:11:51.565Z,4.10
2019-04-11T03:14:21.111Z,4.10
2019-04-11T03:17:01.157Z,4.10
2019-04-11T03:19:37.521Z,4.00
2019-04-11T03:21:54.493Z,4.00
2019-04-11T03:24:26.513Z,4.00
2019-04-11T03:26:58.089Z,4.00
2019-04-11T03:29:28.632Z,4.00
2019-04-11T03:37:24.178Z,4.00
2019-04-11T03:39:52.691Z,4.00
2019-04-11T03:42:17.112Z,4.00
2019-04-11T03:44:40.194Z,4.00
2019-04-11T03:47:21.945Z,4.00
2019-04-11T03:49:44.914Z,4.00
2019-04-11T03:52:08.722Z,3.90
2019-04-11T03:54:40.142Z,4.00
2019-04-11T03:57:09.743Z,4.00
2019-04-11T03:59:40.736Z,4.00
2019-04-11T04:02:12.550Z,3.90
2019-04-11T04:04:43.416Z,3.90
2019-04-11T04:07:14.931Z,3.90
2019-04-11T04:09:45.967Z,3.90
2019-04-11T04:12:16.088Z,3.90
2019-04-11T04:15:06.512Z,3.90
2019-04-11T04:17:45.609Z,3.90
2019-04-11T04:20:33.148Z,3.80
2019-04-11T04:23:34.160Z,3.80
2019-04-11T04:26:06.172Z,3.80
2019-04-11T04:28:38.006Z,3.80
2019-04-11T04:31:09.162Z,3.80
2019-04-11T04:33:39.909Z,3.80
2019-04-11T04:36:11.042Z,3.80
2019-04-11T04:38:41.651Z,3.90
2019-04-11T04:41:23.901Z,3.80
2019-04-11T04:43:45.902Z,3.80
2019-04-11T04:46:31.463Z,3.80
2019-04-11T04:48:48.865Z,3.70
2019-04-11T04:51:19.955Z,3.70
2019-04-11T04:53:50.133Z,3.70
2019-04-11T04:56:24.438Z,3.70
2019-04-11T04:58:50.956Z,3.70
2019-04-11T05:01:21.708Z,3.70
2019-04-11T05:03:51.260Z,3.70
2019-04-11T05:06:20.717Z,3.70
2019-04-11T05:08:51.384Z,3.70
2019-04-11T05:11:20.907Z,3.60
2019-04-11T05:13:51.742Z,3.60
2019-04-11T05:16:20.982Z,3.60
2019-04-11T05:18:50.566Z,3.50
2019-04-11T05:21:21.190Z,3.60
2019-04-11T05:23:52.072Z,3.60
2019-04-11T05:26:21.756Z,3.70
2019-04-11T05:28:52.970Z,3.70
2019-04-11T05:31:22.714Z,3.70
2019-04-11T05:33:51.990Z,3.70
2019-04-11T05:36:22.690Z,3.80
2019-04-11T05:38:52.677Z,3.80
2019-04-11T05:41:23.561Z,3.80
2019-04-11T05:43:53.719Z,3.80
2019-04-11T05:46:32.985Z,3.90
2019-04-11T05:49:01.055Z,3.90
2019-04-11T05:51:36.970Z,4.00
2019-04-11T05:54:07.373Z,4.00
2019-04-11T05:56:33.879Z,4.10
2019-04-11T05:59:17.228Z,4.20
2019-04-11T06:01:52.732Z,4.30
2019-04-11T06:04:30.241Z,4.50
2019-04-11T06:07:11.567Z,4.50
2019-04-11T06:09:44.147Z,4.70
2019-04-11T06:12:22.485Z,4.80
2019-04-11T06:14:57.668Z,4.90
2019-04-11T06:17:27.049Z,5.00
2019-04-11T06:20:33.807Z,5.10
2019-04-11T06:23:25.451Z,5.20
2019-04-11T06:26:08.779Z,5.40
2019-04-11T06:28:38.086Z,5.60
2019-04-11T06:31:26.344Z,5.80
2019-04-11T06:33:59.378Z,5.80
2019-04-11T06:36:50.408Z,6.00
2019-04-11T06:39:45.319Z,6.10
2019-04-11T06:42:33.662Z,6.20
2019-04-11T06:45:29.303Z,6.20
2019-04-11T06:48:30.160Z,6.30
2019-04-11T06:51:13.615Z,6.40
2019-04-11T06:53:46.899Z,6.40
2019-04-11T06:56:20.955Z,6.50
2019-04-11T06:59:00.237Z,6.60
2019-04-11T07:01:30.491Z,6.80
2019-04-11T07:04:03.654Z,7.00
2019-04-11T07:06:35.690Z,7.00
2019-04-11T07:09:25.524Z,7.20
2019-04-11T07:11:59.666Z,7.30
2019-04-11T07:14:47.868Z,7.50
2019-04-11T07:17:36.868Z,7.50
2019-04-11T07:20:29.337Z,7.60
2019-04-11T07:23:16.181Z,7.70
2019-04-11T07:26:04.803Z,7.80
2019-04-11T07:28:52.309Z,8.00
2019-04-11T07:31:39.822Z,8.10
2019-04-11T07:34:32.600Z,8.10
2019-04-11T07:37:16.997Z,8.20
2019-04-11T07:40:24.140Z,8.30
2019-04-11T07:43:17.599Z,8.50
2019-04-11T07:46:06.831Z,8.60
2019-04-11T07:48:42.867Z,8.80
2019-04-11T07:51:40.609Z,8.90
2019-04-11T07:54:13.764Z,9.00
2019-04-11T07:57:01.994Z,9.10
2019-04-11T07:59:49.194Z,9.20
2019-04-11T08:02:37.595Z,9.40
2019-04-11T08:05:46.700Z,9.60
2019-04-11T08:08:51.416Z,9.90
2019-04-11T08:11:28.260Z,10.20
2019-04-11T08:14:16.172Z,10.30
2019-04-11T08:17:04.414Z,10.40
2019-04-11T08:19:53.311Z,10.50
2019-04-11T08:22:57.156Z,10.60
2019-04-11T08:25:45.254Z,10.90
2019-04-11T08:28:16.424Z,10.90
2019-04-11T08:31:01.784Z,11.10
2019-04-11T08:33:33.006Z,11.30
2019-04-11T08:36:17.972Z,11.60
2019-04-11T08:38:48.781Z,11.90
2019-04-11T08:41:55.540Z,12.20
2019-04-11T08:44:30.051Z,12.20
2019-04-11T08:47:04.462Z,12.30
2019-04-11T08:49:37.981Z,12.40
2019-04-11T08:52:20.936Z,12.50
2019-04-11T08:55:06.110Z,12.50
2019-04-11T08:57:47.920Z,12.60
2019-04-11T09:00:44.592Z,13.00
2019-04-11T09:03:31.599Z,13.00
2019-04-11T09:06:06.304Z,13.30
2019-04-11T09:08:54.786Z,13.40
2019-04-11T09:11:26.584Z,13.60
2019-04-11T09:14:13.791Z,13.70
2019-04-11T09:16:52.324Z,13.80
2019-04-11T09:19:43.650Z,14.00
2019-04-11T09:22:39.366Z,14.00
2019-04-11T09:25:28.988Z,14.30
2019-04-11T09:28:17.507Z,14.60
2019-04-11T09:31:07.541Z,14.60
2019-04-11T09:33:59.455Z,14.90
2019-04-11T09:36:47.265Z,14.90
2019-04-11T09:39:35.083Z,14.90
2019-04-11T09:42:23.711Z,15.30
2019-04-11T09:45:01.424Z,15.50
2019-04-11T09:48:08.342Z,15.50
2019-04-11T09:50:44.741Z,15.70
2019-04-11T09:53:14.386Z,15.50
2019-04-11T09:56:15.276Z,15.70
2019-04-11T09:58:47.644Z,15.90
2019-04-11T10:01:37.098Z,16.20
2019-04-11T10:04:08.756Z,16.50
2019-04-11T10:06:59.152Z,16.60
2019-04-11T10:09:39.987Z,16.90
2019-04-11T10:12:27.686Z,17.20
2019-04-11T10:14:57.729Z,17.40
2019-04-11T10:17:46.487Z,17.90
2019-04-11T10:20:18.332Z,17.60
2019-04-11T10:23:10.314Z,17.80
2019-04-11T10:25:51.725Z,17.90
2019-04-11T10:28:37.624Z,17.70
2019-04-11T10:31:12.582Z,17.90
2019-04-11T10:34:01.415Z,18.10
2019-04-11T10:36:45.286Z,18.40
2019-04-11T10:39:43.839Z,18.50
2019-04-11T10:42:14.880Z,18.50
2019-04-11T10:45:04.537Z,18.50
2019-04-11T10:47:35.064Z,18.50
2019-04-11T10:50:15.368Z,18.40
2019-04-11T10:52:58.406Z,18.40
2019-04-11T10:55:37.800Z,18.60
2019-04-11T10:58:12.973Z,18.90
2019-04-11T11:00:59.870Z,19.00
2019-04-11T11:03:34.244Z,19.40
2019-04-11T11:06:05.401Z,19.80
2019-04-11T11:08:41.712Z,19.90
2019-04-11T11:11:17.497Z,20.20
2019-04-11T11:13:56.739Z,20.50
2019-04-11T11:16:32.633Z,20.20
2019-04-11T11:19:45.700Z,20.10
2019-04-11T11:22:27.509Z,20.50
2019-04-11T11:25:26.752Z,20.40
2019-04-11T11:27:56.482Z,20.40
2019-04-11T11:30:48.021Z,20.30
2019-04-11T11:33:20.312Z,20.70
2019-04-11T11:36:11.400Z,20.90
2019-04-11T11:38:41.865Z,20.50
2019-04-11T11:41:36.512Z,21.00
2019-04-11T11:44:07.661Z,21.10
2019-04-11T11:46:55.588Z,21.40
2019-04-11T11:49:41.750Z,21.60
2019-04-11T11:52:17.208Z,22.00
2019-04-11T11:54:49.861Z,22.00
2019-04-11T11:57:37.069Z,21.80
2019-04-11T12:00:13.275Z,22.10
2019-04-11T12:02:53.938Z,22.20
2019-04-11T12:05:30.142Z,21.80
2019-04-11T12:08:13.900Z,21.80
2019-04-11T12:10:53.411Z,22.10
2019-04-11T12:13:45.482Z,22.60
2019-04-11T12:16:20.827Z,23.00
2019-04-11T12:19:07.002Z,23.40
2019-04-11T12:21:36.798Z,23.20
2019-04-11T12:24:25.319Z,23.20
2019-04-11T12:27:02.378Z,23.10
2019-04-11T12:29:48.846Z,23.20
2019-04-11T12:32:20.086Z,23.20
2019-04-11T12:35:13.920Z,23.20
2019-04-11T12:37:51.813Z,23.00
2019-04-11T12:40:36.754Z,23.20
2019-04-11T12:43:07.435Z,23.00
2019-04-11T12:45:55.714Z,23.00
2019-04-11T12:48:29.906Z,22.60
2019-04-11T12:51:20.973Z,22.90
2019-04-11T12:53:50.290Z,22.80
2019-04-11T12:56:37.222Z,22.90
2019-04-11T12:59:12.654Z,23.80
2019-04-11T13:02:01.174Z,23.70
2019-04-11T13:04:32.059Z,23.60
2019-04-11T13:07:32.734Z,23.10
2019-04-11T13:10:12.211Z,23.30
2019-04-11T13:13:18.704Z,23.20
2019-04-11T13:16:12.388Z,23.30
2019-04-11T13:19:14.527Z,23.20
2019-04-11T13:21:53.840Z,23.40
2019-04-11T13:24:41.070Z,23.30
2019-04-11T13:27:28.036Z,23.00
2019-04-11T13:30:19.047Z,22.90
2019-04-11T13:32:50.521Z,23.10
2019-04-11T13:35:51.205Z,23.10
2019-04-11T13:38:23.533Z,22.90
2019-04-11T13:41:20.963Z,22.80
2019-04-11T13:43:53.672Z,22.50
2019-04-11T13:46:48.116Z,22.10
2019-04-11T13:49:38.872Z,22.20
2019-04-11T13:52:30.178Z,22.20
2019-04-11T13:55:11.147Z,22.20
2019-04-11T13:57:59.786Z,22.20
2019-04-11T14:00:49.690Z,22.20
2019-04-11T14:03:36.413Z,21.70
2019-04-11T14:06:15.884Z,22.00
2019-04-11T14:08:55.077Z,21.60
2019-04-11T14:11:24.899Z,21.40
2019-04-11T14:13:54.940Z,21.40
2019-04-11T14:16:24.108Z,21.30
2019-04-11T14:19:01.876Z,21.00
2019-04-11T14:21:31.519Z,20.50
2019-04-11T14:24:19.727Z,20.70
2019-04-11T14:26:51.968Z,20.80
2019-04-11T14:29:49.303Z,20.80
2019-04-11T14:32:25.096Z,20.80
2019-04-11T14:35:16.517Z,20.30
2019-04-11T14:38:00.276Z,19.80
2019-04-11T14:41:01.634Z,19.70
2019-04-11T14:43:35.523Z,19.80
2019-04-11T14:46:24.369Z,19.70
2019-04-11T14:49:19.183Z,19.30
2019-04-11T14:52:06.410Z,19.40
2019-04-11T14:54:48.891Z,18.90
2019-04-11T14:57:33.851Z,18.40
2019-04-11T15:00:13.698Z,18.20
2019-04-11T15:03:20.937Z,18.10
2019-04-11T15:06:09.418Z,17.80
2019-04-11T15:08:59.028Z,17.90
2019-04-11T15:11:49.927Z,17.90
2019-04-11T15:14:38.561Z,17.60
2019-04-11T15:17:32.674Z,17.50
2019-04-11T15:20:19.757Z,17.30
2019-04-11T15:22:53.946Z,17.00
2019-04-11T15:25:48.946Z,16.80
2019-04-11T15:28:24.768Z,16.80
2019-04-11T15:30:56.285Z,16.50
2019-04-11T15:33:49.675Z,16.20
2019-04-11T15:36:20.291Z,16.00
2019-04-11T15:39:08.606Z,15.80
2019-04-11T15:41:39.877Z,15.50
2019-04-11T15:44:35.265Z,15.30
2019-04-11T15:47:06.639Z,15.40
2019-04-11T15:50:10.713Z,15.50
2019-04-11T15:52:52.073Z,15.40
2019-04-11T15:55:53.217Z,15.20
2019-04-11T15:58:25.349Z,15.10
2019-04-11T16:01:05.087Z,15.10
2019-04-11T16:03:36.012Z,14.90
2019-04-11T16:06:23.917Z,14.70
2019-04-11T16:09:00.068Z,14.70
2019-04-11T16:11:51.609Z,14.70
2019-04-11T16:14:47.979Z,14.40
2019-04-11T16:17:36.309Z,14.30
2019-04-11T16:20:22.167Z,14.20
2019-04-11T16:23:11.324Z,13.90
2019-04-11T16:25:51.975Z,13.70
2019-04-11T16:28:43.413Z,13.80
2019-04-11T16:31:14.241Z,13.60
2019-04-11T16:34:15.916Z,13.40
2019-04-11T16:36:59.459Z,13.20
2019-04-11T16:39:55.037Z,13.00
2019-04-11T16:42:34.752Z,12.90
2019-04-11T16:45:25.061Z,12.90
2019-04-11T16:48:03.739Z,12.80
2019-04-11T16:50:34.081Z,12.70
2019-04-11T16:53:03.765Z,12.50
2019-04-11T16:55:32.955Z,12.30
2019-04-11T16:58:02.578Z,12.20
2019-04-11T17:00:32.735Z,12.10
2019-04-11T17:03:02.544Z,12.00
2019-04-11T17:05:31.783Z,12.00
2019-04-11T17:08:25.892Z,11.90
2019-04-11T17:11:18.869Z,11.90
2019-04-11T17:13:48.325Z,11.80
2019-04-11T17:16:19.089Z,11.80
2019-04-11T17:18:48.402Z,11.60
2019-04-11T17:21:18.263Z,11.60
2019-04-11T17:23:47.811Z,11.50
2019-04-11T17:26:17.526Z,11.40
2019-04-11T17:28:47.041Z,11.30
2019-04-11T17:31:16.735Z,11.20
2019-04-11T17:33:46.376Z,11.10
2019-04-11T17:36:15.527Z,11.10
2019-04-11T17:38:45.109Z,11.00
2019-04-11T17:41:14.472Z,11.00
2019-04-11T17:43:46.750Z,10.80
2019-04-11T17:46:14.781Z,10.70
2019-04-11T17:48:44.627Z,10.60
2019-04-11T17:51:14.223Z,10.50
2019-04-11T17:53:43.941Z,10.50
2019-04-11T17:56:13.263Z,10.40
2019-04-11T17:58:42.447Z,10.40
2019-04-11T18:01:12.088Z,10.30
2019-04-11T18:03:42.701Z,10.30
2019-04-11T18:06:11.962Z,10.20
2019-04-11T18:08:41.629Z,10.10
2019-04-11T18:11:11.708Z,10.10
2019-04-11T18:13:41.025Z,9.90
2019-04-11T18:16:10.261Z,9.80
2019-04-11T18:18:39.589Z,9.80
2019-04-11T18:21:09.419Z,9.60
2019-04-11T18:23:38.664Z,9.60
2019-04-11T18:26:08.393Z,9.50
2019-04-11T18:28:37.706Z,9.60
2019-04-11T18:31:06.980Z,9.40
2019-04-11T18:33:36.547Z,9.40
2019-04-11T18:36:07.379Z,9.30
2019-04-11T18:38:37.565Z,9.30
2019-04-11T18:41:06.821Z,9.30
2019-04-11T18:43:36.759Z,9.20
2019-04-11T18:46:07.141Z,9.20
2019-04-11T18:48:36.416Z,9.10
2019-04-11T18:51:05.581Z,9.10
2019-04-11T18:53:34.814Z,9.00
2019-04-11T18:56:04.753Z,9.00
2019-04-11T18:58:34.622Z,8.90
2019-04-11T19:01:08.836Z,8.90
2019-04-11T19:03:36.685Z,8.90
2019-04-11T19:06:06.203Z,8.80
2019-04-11T19:08:35.457Z,8.70
2019-04-11T19:11:04.793Z,8.70
2019-04-11T19:13:33.948Z,8.70
2019-04-11T19:16:03.858Z,8.60
2019-04-11T19:18:33.183Z,8.50
2019-04-11T19:21:02.825Z,8.50
2019-04-11T19:23:32.409Z,8.50
2019-04-11T19:26:02.453Z,8.40
2019-04-11T19:28:31.708Z,8.40
2019-04-11T19:31:01.380Z,8.40
2019-04-11T19:33:34.081Z,8.40
2019-04-11T19:36:01.517Z,8.30
2019-04-11T19:38:33.066Z,8.30
2019-04-11T19:41:02.362Z,8.30
2019-04-11T19:43:31.562Z,8.30
2019-04-11T19:46:01.368Z,8.20
2019-04-11T19:48:30.615Z,8.20
2019-04-11T19:51:00.258Z,8.20
2019-04-11T19:53:32.848Z,8.10
2019-04-11T19:56:19.796Z,8.10
2019-04-11T19:58:49.074Z,8.00
2019-04-11T20:01:22.802Z,8.00
2019-04-11T20:03:53.745Z,8.00
2019-04-11T20:06:21.038Z,7.90
2019-04-11T20:08:51.045Z,7.90
2019-04-11T20:11:21.026Z,7.90
2019-04-11T20:13:50.315Z,7.90
2019-04-11T20:16:19.960Z,7.90
2019-04-11T20:18:51.339Z,7.90
2019-04-11T20:21:20.928Z,7.80
2019-04-11T20:23:50.321Z,7.80
2019-04-11T20:26:20.902Z,7.90
2019-04-11T20:28:51.562Z,7.80
2019-04-11T20:31:21.009Z,7.80
2019-04-11T20:33:51.002Z,7.70
2019-04-11T20:36:20.173Z,7.70
2019-04-11T20:38:49.355Z,7.70
2019-04-11T20:41:22.969Z,7.70
2019-04-11T20:43:50.268Z,7.70
2019-04-11T20:46:19.842Z,7.70
2019-04-11T20:48:49.436Z,7.70
2019-04-11T20:51:18.668Z,7.60
2019-04-11T20:53:47.965Z,7.60
2019-04-11T20:56:24.100Z,7.50
2019-04-11T20:58:48.169Z,7.50
2019-04-11T21:01:17.537Z,7.50
2019-04-11T21:03:47.143Z,7.50
2019-04-11T21:06:16.761Z,7.40
2019-04-11T21:08:46.016Z,7.40
2019-04-11T21:11:15.528Z,7.40
2019-04-11T21:13:44.699Z,7.30
2019-04-11T21:16:13.967Z,7.30
2019-04-11T21:18:43.522Z,7.30
2019-04-11T21:21:13.018Z,7.30
2019-04-11T21:23:42.678Z,7.30
2019-04-11T21:26:11.867Z,7.30
2019-04-11T21:28:41.397Z,7.30
2019-04-11T21:31:10.686Z,7.20
2019-04-11T21:33:40.552Z,7.20
2019-04-11T21:36:10.225Z,7.20
2019-04-11T21:38:39.792Z,7.10
2019-04-11T21:41:09.766Z,7.10
2019-04-11T21:43:39.280Z,7.10
2019-04-11T21:46:08.564Z,7.10
2019-04-11T21:48:37.915Z,7.10
2019-04-11T21:51:11.090Z,7.20
2019-04-11T21:53:38.494Z,7.10
2019-04-11T21:56:07.800Z,7.10
2019-04-11T21:58:37.387Z,7.10
2019-04-11T22:01:11.726Z,7.10
2019-04-11T22:03:41.748Z,7.00
2019-04-11T22:06:11.452Z,7.00
2019-04-11T22:08:41.226Z,7.00
2019-04-11T22:11:10.873Z,7.00
2019-04-11T22:13:40.954Z,7.00
2019-04-11T22:16:13.380Z,6.90
2019-04-11T22:18:44.379Z,6.90
2019-04-11T22:21:15.618Z,6.90
2019-04-11T22:23:48.883Z,6.90
2019-04-11T22:26:15.372Z,6.80
2019-04-11T22:28:44.963Z,6.80
2019-04-11T22:31:14.302Z,6.80
2019-04-11T22:34:07.571Z,6.80
2019-04-11T22:36:37.318Z,6.80
2019-04-11T22:39:10.282Z,6.80
2019-04-11T22:41:39.654Z,6.70
2019-04-11T22:44:08.918Z,6.70
2019-04-11T22:46:38.870Z,6.70
2019-04-11T22:49:09.386Z,6.70
2019-04-11T22:51:42.677Z,6.70
2019-04-11T22:54:12.987Z,6.60
2019-04-11T22:56:41.870Z,6.60
2019-04-11T22:59:14.001Z,6.50
2019-04-11T23:01:46.515Z,6.50
2019-04-11T23:04:16.648Z,6.50
2019-04-11T23:06:44.936Z,6.50
2019-04-11T23:09:16.610Z,6.50
2019-04-11T23:11:47.006Z,6.40
2019-04-11T23:14:16.995Z,6.40
2019-04-11T23:16:46.909Z,6.40
2019-04-11T23:19:16.056Z,6.40
2019-04-11T23:21:45.731Z,6.40
2019-04-11T23:24:15.200Z,6.30
2019-04-11T23:26:44.448Z,6.30
2019-04-11T23:29:15.802Z,6.30
2019-04-11T23:31:44.673Z,6.30
2019-04-11T23:34:14.326Z,6.30
2019-04-11T23:36:43.566Z,6.20
2019-04-11T23:39:13.048Z,6.20
2019-04-11T23:41:42.254Z,6.20
2019-04-11T23:44:11.414Z,6.10
2019-04-11T23:46:40.961Z,6.10
2019-04-11T23:49:10.130Z,6.10
2019-04-11T23:51:39.432Z,6.10
2019-04-11T23:54:08.642Z,6.10
2019-04-11T23:56:37.812Z,6.10
2019-04-11T23:59:07.334Z,6.10
